Aérodrome :
LOGIN :

S'inscrire | Disclaimer

   EN    FR    IT 

 










Légende :    VFR   VFR Marginal   IFR   IFR Intensif   IFR Très Intensif
Visi : 
Plafond : 
>= 8 km
>= 3000ft
5 à 8 km
1000 à 3000 ft
1500m à 5 km
500 à 1000 ft
800 à 1500m
200 à 500 ft
< 800m
< 200 ft
Symboles :   Orages  Brouillard  Fortes neiges  Fortes précipitations  Vent > 20 kt
SIGMETs :   Divers  Orages  Givrage  Turbulence  Onde Orograph.  Cendres Volcan.







- Altitude de l'aérodrome : 370 ft


EBBE - Beauvechain AB

DERNIER METAR :
  • 181755Z 33005KT 9999 FEW015 BKN034 06/04 Q1028 BLU BLU TEMPO WHT

METARs EXPIRÉS :
  • 181725Z 33006KT 9999 FEW018 SCT028 BKN033 06/04 Q1028 BLU BLU TEMPO WHT
  • 181655Z 33007KT 9999 FEW018 SCT028 BKN033 06/04 Q1028 BLU BLU TEMPO WHT
  • 181625Z 33008KT 9999 FEW022 BKN027 07/03 Q1027 BLU BLU TEMPO WHT
  • 181555Z 34007KT 9999 SCT022 BKN027 07/03 Q1027 WHT BLU TEMPO WHT
  • 181525Z 33007KT 9999 SCT025 BKN028 07/03 Q1026 BLU BLU TEMPO WHT

TAF TAF EBBE
Valide du 18 à 19h jusqu'au 19 à 07h UTC


181541Z 1819/1907 33008KT 9999 FEW020 BKN025
BECMG 1901/1903 29004KT 5000 BR SCT008 BKN020
TEMPO 1902/1907 1500 BR SCT003 BKN006
Pas de NOTAMs connus pour ce terrain.



MET'MAP, la Météo Aéronautique d'un coup d'oeil ! - Copyright ORBIFLY Décembre 2007 - Disclaimer

ORBIFLY MET'MAP TEAM :

Programmation & Développement : Alexandra Zaïnal
Conception & Développement : Baudouin d'Aumeries
Co-Programmation & Développement : Marc-Olivier Méhu
Soutien technique & logistique : Manuel Goepfert

Contact : metmap@orbifly.com




SOURCES & CREDITS :

   NOAA